Caney Valley, Arkansas
Current Conditions -  °F | °C
As of 1:56 AM on Thursday 27 Nov 2014 (Local Time) from KADF Reporting Station
Clear Clear  
Wind Chill: 37°   Ceiling: Unl
Heat Index: 41°   Visibility: 10mi
Dew Point: 29°   Wind: 6mph
Humidity: 63%   Direction: 310°NW
Pressure: 30.37"   Gusts: NA
Location:  34.2417°N, 93.3579°W
Report Text: KADF 270756Z AUTO 31005KT 10SM CLR 05/M02 A3037 RMK AO2 T00501016 SLP298
Loading
Personal Weather Stations






























Interactive Weather Map New forecast layout! Learn more

10-Day Weather Forecast

Advertisements
Track Severe Weather on mobile